Terminal Aerodrome Forecast
Issued by NWS Duluth, MN

Home | Current Version | Previous Version | Text Only | Print | Product List | Glossary On
Versions: 1 2 3 4 5 6 7 8 9 10 11 12 13 14 15 16 17 18
337
FTUS43 KDLH 170529
TAFINL
TAF
KINL 170529Z 1706/1806 17004KT P6SM BKN200
     FM171000 18004KT 6SM BR SCT008 BKN200
      TEMPO 1711/1714 4SM BR SCT008
     FM171600 18006KT P6SM SCT200
     FM180300 24007KT P6SM BKN070=

USA.gov is the U.S. government's official web portal to all federal, state and local government web resources and services.